Palm Shores, Florida
Current Conditions -  °F | °C
As of 6:58 AM on Friday 24 Oct 2014 (Local Time) from KCOF Reporting Station
Clear Clear  
Wind Chill: 71°   Ceiling: Unl
Heat Index: 71°   Visibility: 10mi
Dew Point: 56°   Wind: 7mph
Humidity: 58%   Direction: 30°NNE
Pressure: 29.94"   Gusts: NA
Location:  28.2259°N, 80.6951°W
Report Text: KCOF 241058Z AUTO 03006KT 10SM CLR 22/13 A2994 RMK AO2 SLP143 T02190132
Loading
Personal Weather Stations






























Interactive Weather Map
Tropical Storm Tracking
New forecast layout! Learn more

10-Day Weather Forecast

Advertisements
Track Severe Weather on mobile